Fargo (FAR/KFAR)

Map

Destinations

Information

Location
Fargo, ND
Local Time
15:23 / 3:23 pm
GMT Time
20:23 / 8:23 pm
Gates
2
No FAA reported delays
METAR KFAR 231953Z 32019G32KT 10SM CLR 13/M01 A2993 RMK AO2 PK WND 30034/1907 SLP138 T01331011
TAF KFAR 231720Z 2318/2418 33024G34KT P6SM BKN080 FM240000 34015G24KT P6SM SCT080